sensor_id;sensor_type;location;lat;lon;timestamp;pressure;altitude;pressure_sealevel;temperature;humidity
71795;BME280;59641;45.188;5.712;2024-01-07T00:01:24;98434.53;;;8.08;61.36
71795;BME280;59641;45.188;5.712;2024-01-07T00:03:51;98443.38;;;8.08;61.48
71795;BME280;59641;45.188;5.712;2024-01-07T00:06:16;98436.03;;;8.04;61.49
71795;BME280;59641;45.188;5.712;2024-01-07T00:08:41;98441.13;;;8.05;61.40
71795;BME280;59641;45.188;5.712;2024-01-07T00:11:07;98443.00;;;8.05;61.64
71795;BME280;59641;45.188;5.712;2024-01-07T00:13:32;98448.59;;;8.03;61.50
71795;BME280;59641;45.188;5.712;2024-01-07T00:15:57;98437.31;;;8.01;61.59
71795;BME280;59641;45.188;5.712;2024-01-07T00:18:23;98436.25;;;8.02;61.57
71795;BME280;59641;45.188;5.712;2024-01-07T00:20:49;98429.03;;;8.03;61.49
71795;BME280;59641;45.188;5.712;2024-01-07T00:23:15;98447.53;;;8.04;61.54
71795;BME280;59641;45.188;5.712;2024-01-07T00:25:40;98441.97;;;8.06;61.64
71795;BME280;59641;45.188;5.712;2024-01-07T00:28:05;98437.44;;;8.06;61.63
71795;BME280;59641;45.188;5.712;2024-01-07T00:30:31;98435.56;;;8.07;61.57
71795;BME280;59641;45.188;5.712;2024-01-07T00:32:56;98430.81;;;8.09;61.50
71795;BME280;59641;45.188;5.712;2024-01-07T00:35:21;98430.22;;;8.07;61.62
71795;BME280;59641;45.188;5.712;2024-01-07T00:37:47;98432.91;;;8.07;61.50
71795;BME280;59641;45.188;5.712;2024-01-07T00:40:12;98432.09;;;8.06;61.77
71795;BME280;59641;45.188;5.712;2024-01-07T00:42:38;98418.50;;;8.08;61.63
71795;BME280;59641;45.188;5.712;2024-01-07T00:45:03;98425.84;;;8.13;61.67
71795;BME280;59641;45.188;5.712;2024-01-07T00:47:29;98422.13;;;8.14;61.74
71795;BME280;59641;45.188;5.712;2024-01-07T00:49:54;98423.75;;;8.15;61.73
71795;BME280;59641;45.188;5.712;2024-01-07T00:52:19;98430.50;;;8.17;61.75
71795;BME280;59641;45.188;5.712;2024-01-07T00:54:46;98419.00;;;8.17;61.87
71795;BME280;59641;45.188;5.712;2024-01-07T00:57:11;98417.13;;;8.17;61.84
71795;BME280;59641;45.188;5.712;2024-01-07T00:59:38;98414.34;;;8.12;61.81
71795;BME280;59641;45.188;5.712;2024-01-07T01:02:03;98423.41;;;8.11;61.97
71795;BME280;59641;45.188;5.712;2024-01-07T01:04:29;98419.69;;;8.12;61.86
71795;BME280;59641;45.188;5.712;2024-01-07T01:06:54;98422.34;;;8.12;62.07
71795;BME280;59641;45.188;5.712;2024-01-07T01:09:19;98438.38;;;8.12;62.17
71795;BME280;59641;45.188;5.712;2024-01-07T01:11:45;98433.84;;;8.13;62.48
71795;BME280;59641;45.188;5.712;2024-01-07T01:14:10;98425.63;;;8.14;62.24
71795;BME280;59641;45.188;5.712;2024-01-07T01:16:35;98427.47;;;8.14;62.37
71795;BME280;59641;45.188;5.712;2024-01-07T01:19:01;98428.75;;;8.11;62.19
71795;BME280;59641;45.188;5.712;2024-01-07T01:21:26;98435.72;;;8.12;62.30
71795;BME280;59641;45.188;5.712;2024-01-07T01:23:51;98433.84;;;8.13;62.31
71795;BME280;59641;45.188;5.712;2024-01-07T01:26:17;98433.84;;;8.13;62.30
71795;BME280;59641;45.188;5.712;2024-01-07T01:28:42;98423.16;;;8.13;62.41
71795;BME280;59641;45.188;5.712;2024-01-07T01:31:07;98440.25;;;8.11;62.39
71795;BME280;59641;45.188;5.712;2024-01-07T01:33:33;98442.31;;;8.09;62.23
71795;BME280;59641;45.188;5.712;2024-01-07T01:36:04;98430.03;;;8.08;62.45
71795;BME280;59641;45.188;5.712;2024-01-07T01:38:31;98438.03;;;8.08;62.34
71795;BME280;59641;45.188;5.712;2024-01-07T01:40:56;98437.06;;;8.03;62.35
71795;BME280;59641;45.188;5.712;2024-01-07T01:43:25;98438.13;;;8.02;62.52
71795;BME280;59641;45.188;5.712;2024-01-07T01:45:51;98438.34;;;8.00;62.35
71795;BME280;59641;45.188;5.712;2024-01-07T01:48:17;98444.72;;;7.99;62.66
71795;BME280;59641;45.188;5.712;2024-01-07T01:50:43;98443.91;;;7.99;62.66
71795;BME280;59641;45.188;5.712;2024-01-07T01:53:09;98444.13;;;7.97;62.77
71795;BME280;59641;45.188;5.712;2024-01-07T01:55:34;98438.19;;;7.95;62.51
71795;BME280;59641;45.188;5.712;2024-01-07T01:58:00;98431.00;;;7.96;62.80
71795;BME280;59641;45.188;5.712;2024-01-07T02:00:29;98437.38;;;7.95;62.72
71795;BME280;59641;45.188;5.712;2024-01-07T02:02:54;98441.91;;;7.94;62.69
71795;BME280;59641;45.188;5.712;2024-01-07T02:05:20;98437.59;;;7.93;62.79
71795;BME280;59641;45.188;5.712;2024-01-07T02:07:45;98440.72;;;7.90;62.74
71795;BME280;59641;45.188;5.712;2024-01-07T02:10:11;98442.34;;;7.91;62.87
71795;BME280;59641;45.188;5.712;2024-01-07T02:12:37;98451.06;;;7.86;62.81
71795;BME280;59641;45.188;5.712;2024-01-07T02:15:03;98435.03;;;7.86;62.76
71795;BME280;59641;45.188;5.712;2024-01-07T02:17:29;98448.41;;;7.86;63.14
71795;BME280;59641;45.188;5.712;2024-01-07T02:19:54;98436.66;;;7.87;62.90
71795;BME280;59641;45.188;5.712;2024-01-07T02:22:19;98434.59;;;7.89;62.85
71795;BME280;59641;45.188;5.712;2024-01-07T02:24:45;98439.13;;;7.89;63.03
71795;BME280;59641;45.188;5.712;2024-01-07T02:27:10;98441.53;;;7.90;63.30
71795;BME280;59641;45.188;5.712;2024-01-07T02:29:36;98435.19;;;7.92;63.02
71795;BME280;59641;45.188;5.712;2024-01-07T02:32:01;98441.31;;;7.92;63.02
71795;BME280;59641;45.188;5.712;2024-01-07T02:34:26;98444.59;;;7.94;63.06
71795;BME280;59641;45.188;5.712;2024-01-07T02:36:52;98437.38;;;7.95;62.88
71795;BME280;59641;45.188;5.712;2024-01-07T02:39:17;98428.31;;;7.96;62.89
71795;BME280;59641;45.188;5.712;2024-01-07T02:41:42;98432.25;;;7.93;62.77
71795;BME280;59641;45.188;5.712;2024-01-07T02:44:08;98434.13;;;7.93;62.92
71795;BME280;59641;45.188;5.712;2024-01-07T02:46:33;98434.34;;;7.91;63.11
71795;BME280;59641;45.188;5.712;2024-01-07T02:48:58;98438.06;;;7.90;63.06
71795;BME280;59641;45.188;5.712;2024-01-07T02:51:24;98425.50;;;7.90;63.05
71795;BME280;59641;45.188;5.712;2024-01-07T02:53:49;98430.03;;;7.90;63.12
71795;BME280;59641;45.188;5.712;2024-01-07T02:56:14;98434.59;;;7.89;63.12
71795;BME280;59641;45.188;5.712;2024-01-07T02:58:39;98424.13;;;7.88;63.14
71795;BME280;59641;45.188;5.712;2024-01-07T03:01:08;98423.31;;;7.87;63.42
71795;BME280;59641;45.188;5.712;2024-01-07T03:03:34;98428.84;;;7.86;63.26
71795;BME280;59641;45.188;5.712;2024-01-07T03:05:59;98414.47;;;7.87;63.38
71795;BME280;59641;45.188;5.712;2024-01-07T03:08:24;98413.44;;;7.88;63.20
71795;BME280;59641;45.188;5.712;2024-01-07T03:10:50;98412.84;;;7.86;63.14
71795;BME280;59641;45.188;5.712;2024-01-07T03:13:15;98413.66;;;7.86;63.21
71795;BME280;59641;45.188;5.712;2024-01-07T03:15:40;98403.78;;;7.87;63.23
71795;BME280;59641;45.188;5.712;2024-01-07T03:18:06;98418.56;;;7.89;63.30
71795;BME280;59641;45.188;5.712;2024-01-07T03:20:31;98404.16;;;7.90;63.33
71795;BME280;59641;45.188;5.712;2024-01-07T03:22:57;98406.59;;;7.92;63.29
71795;BME280;59641;45.188;5.712;2024-01-07T03:25:23;98407.19;;;7.94;63.37
71795;BME280;59641;45.188;5.712;2024-01-07T03:27:48;98411.47;;;7.95;63.23
71795;BME280;59641;45.188;5.712;2024-01-07T03:30:13;98416.22;;;7.93;63.19
71795;BME280;59641;45.188;5.712;2024-01-07T03:32:39;98407.88;;;7.89;63.32
71795;BME280;59641;45.188;5.712;2024-01-07T03:35:04;98410.53;;;7.89;63.54
71795;BME280;59641;45.188;5.712;2024-01-07T03:37:30;98401.47;;;7.90;63.50
71795;BME280;59641;45.188;5.712;2024-01-07T03:39:56;98403.94;;;7.92;63.52
71795;BME280;59641;45.188;5.712;2024-01-07T03:42:21;98403.94;;;7.92;63.62
71795;BME280;59641;45.188;5.712;2024-01-07T03:44:46;98403.00;;;7.86;64.07
71795;BME280;59641;45.188;5.712;2024-01-07T03:47:12;98399.84;;;7.89;63.63
71795;BME280;59641;45.188;5.712;2024-01-07T03:49:37;98398.00;;;7.90;63.68
71795;BME280;59641;45.188;5.712;2024-01-07T03:52:04;98400.66;;;7.90;63.65
71795;BME280;59641;45.188;5.712;2024-01-07T03:54:30;98406.47;;;7.87;63.68
71795;BME280;59641;45.188;5.712;2024-01-07T03:56:55;98408.31;;;7.86;63.74
71795;BME280;59641;45.188;5.712;2024-01-07T03:59:20;98396.81;;;7.86;63.73
71795;BME280;59641;45.188;5.712;2024-01-07T04:01:48;98400.53;;;7.85;63.70
71795;BME280;59641;45.188;5.712;2024-01-07T04:04:13;98409.13;;;7.87;63.87
71795;BME280;59641;45.188;5.712;2024-01-07T04:06:39;98410.75;;;7.88;63.87
71795;BME280;59641;45.188;5.712;2024-01-07T04:09:04;98402.75;;;7.88;63.95
71795;BME280;59641;45.188;5.712;2024-01-07T04:11:29;98403.78;;;7.87;63.93
71795;BME280;59641;45.188;5.712;2024-01-07T04:13:55;98404.59;;;7.87;64.32
71795;BME280;59641;45.188;5.712;2024-01-07T04:16:20;98396.38;;;7.89;64.12
71795;BME280;59641;45.188;5.712;2024-01-07T04:18:47;98404.38;;;7.89;63.92
71795;BME280;59641;45.188;5.712;2024-01-07T04:21:13;98403.34;;;7.90;64.05
71795;BME280;59641;45.188;5.712;2024-01-07T04:23:39;98408.22;;;7.93;63.95
71795;BME280;59641;45.188;5.712;2024-01-07T04:26:08;98402.06;;;7.93;64.12
71795;BME280;59641;45.188;5.712;2024-01-07T04:28:34;98408.47;;;7.92;64.11
71795;BME280;59641;45.188;5.712;2024-01-07T04:31:01;98402.28;;;7.91;64.11
71795;BME280;59641;45.188;5.712;2024-01-07T04:33:26;98409.47;;;7.90;64.35
71795;BME280;59641;45.188;5.712;2024-01-07T04:35:52;98406.00;;;7.90;64.23
71795;BME280;59641;45.188;5.712;2024-01-07T04:38:17;98404.16;;;7.90;64.10
71795;BME280;59641;45.188;5.712;2024-01-07T04:40:43;98403.13;;;7.92;64.19
71795;BME280;59641;45.188;5.712;2024-01-07T04:43:08;98407.06;;;7.89;63.95
71795;BME280;59641;45.188;5.712;2024-01-07T04:45:33;98411.34;;;7.90;64.18
71795;BME280;59641;45.188;5.712;2024-01-07T04:47:59;98405.66;;;7.86;64.10
71795;BME280;59641;45.188;5.712;2024-01-07T04:50:24;98403.78;;;7.87;64.22
71795;BME280;59641;45.188;5.712;2024-01-07T04:52:49;98407.50;;;7.86;64.15
71795;BME280;59641;45.188;5.712;2024-01-07T04:55:15;98410.16;;;7.86;64.34
71795;BME280;59641;45.188;5.712;2024-01-07T04:57:40;98407.72;;;7.84;64.29
71795;BME280;59641;45.188;5.712;2024-01-07T05:00:06;98405.28;;;7.83;64.17
71795;BME280;59641;45.188;5.712;2024-01-07T05:02:31;98409.44;;;7.79;64.40
71795;BME280;59641;45.188;5.712;2024-01-07T05:04:57;98411.50;;;7.77;64.26
71795;BME280;59641;45.188;5.712;2024-01-07T05:07:22;98405.34;;;7.76;64.19
71795;BME280;59641;45.188;5.712;2024-01-07T05:09:47;98413.97;;;7.78;64.53
71795;BME280;59641;45.188;5.712;2024-01-07T05:12:13;98414.56;;;7.80;64.45
71795;BME280;59641;45.188;5.712;2024-01-07T05:14:38;98410.41;;;7.84;64.59
71795;BME280;59641;45.188;5.712;2024-01-07T05:17:04;98415.16;;;7.82;64.42
71795;BME280;59641;45.188;5.712;2024-01-07T05:19:29;98417.69;;;7.77;64.23
71795;BME280;59641;45.188;5.712;2024-01-07T05:21:55;98412.78;;;7.74;64.37
71795;BME280;59641;45.188;5.712;2024-01-07T05:24:21;98417.53;;;7.72;64.28
71795;BME280;59641;45.188;5.712;2024-01-07T05:26:47;98415.69;;;7.73;64.39
71795;BME280;59641;45.188;5.712;2024-01-07T05:29:12;98422.28;;;7.70;64.59
71795;BME280;59641;45.188;5.712;2024-01-07T05:31:40;98424.72;;;7.72;64.56
71795;BME280;59641;45.188;5.712;2024-01-07T05:34:06;98428.44;;;7.71;64.64
71795;BME280;59641;45.188;5.712;2024-01-07T05:36:31;98415.31;;;7.69;64.65
71795;BME280;59641;45.188;5.712;2024-01-07T05:38:57;98416.22;;;7.63;64.80
71795;BME280;59641;45.188;5.712;2024-01-07T05:41:22;98427.50;;;7.65;64.38
71795;BME280;59641;45.188;5.712;2024-01-07T05:43:47;98433.66;;;7.65;64.74
71795;BME280;59641;45.188;5.712;2024-01-07T05:46:13;98423.19;;;7.64;64.70
71795;BME280;59641;45.188;5.712;2024-01-07T05:48:49;98432.00;;;7.64;64.67
71795;BME280;59641;45.188;5.712;2024-01-07T05:51:15;98431.41;;;7.62;64.88
71795;BME280;59641;45.188;5.712;2024-01-07T05:53:41;98426.06;;;7.62;64.69
71795;BME280;59641;45.188;5.712;2024-01-07T05:56:07;98434.31;;;7.61;64.60
71795;BME280;59641;45.188;5.712;2024-01-07T05:58:32;98433.50;;;7.60;64.82
71795;BME280;59641;45.188;5.712;2024-01-07T06:00:58;98429.44;;;7.58;64.70
71795;BME280;59641;45.188;5.712;2024-01-07T06:03:23;98424.50;;;7.55;64.66
71795;BME280;59641;45.188;5.712;2024-01-07T06:05:49;98423.09;;;7.52;64.78
71795;BME280;59641;45.188;5.712;2024-01-07T06:08:14;98424.75;;;7.53;64.86
71795;BME280;59641;45.188;5.712;2024-01-07T06:10:40;98428.44;;;7.52;64.86
71795;BME280;59641;45.188;5.712;2024-01-07T06:13:05;98425.19;;;7.50;64.87
71795;BME280;59641;45.188;5.712;2024-01-07T06:15:31;98431.78;;;7.47;64.83
71795;BME280;59641;45.188;5.712;2024-01-07T06:17:56;98433.63;;;7.47;65.24
71795;BME280;59641;45.188;5.712;2024-01-07T06:20:22;98437.34;;;7.46;65.02
71795;BME280;59641;45.188;5.712;2024-01-07T06:22:48;98437.34;;;7.46;65.00
71795;BME280;59641;45.188;5.712;2024-01-07T06:25:13;98443.50;;;7.46;65.08
71795;BME280;59641;45.188;5.712;2024-01-07T06:27:39;98446.03;;;7.41;64.95
71795;BME280;59641;45.188;5.712;2024-01-07T06:30:06;98435.78;;;7.38;65.08
71795;BME280;59641;45.188;5.712;2024-01-07T06:32:31;98448.09;;;7.39;65.10
71795;BME280;59641;45.188;5.712;2024-01-07T06:34:58;98444.22;;;7.35;65.15
71795;BME280;59641;45.188;5.712;2024-01-07T06:37:23;98447.94;;;7.34;65.04
71795;BME280;59641;45.188;5.712;2024-01-07T06:39:48;98450.22;;;7.31;65.09
71795;BME280;59641;45.188;5.712;2024-01-07T06:42:14;98455.34;;;7.32;65.04
71795;BME280;59641;45.188;5.712;2024-01-07T06:44:39;98456.16;;;7.33;65.26
71795;BME280;59641;45.188;5.712;2024-01-07T06:47:04;98462.75;;;7.30;65.18
71795;BME280;59641;45.188;5.712;2024-01-07T06:49:30;98458.09;;;7.25;65.15
71795;BME280;59641;45.188;5.712;2024-01-07T06:51:55;98458.31;;;7.24;65.16
71795;BME280;59641;45.188;5.712;2024-01-07T06:54:20;98466.34;;;7.24;65.27
71795;BME280;59641;45.188;5.712;2024-01-07T06:56:46;98469.41;;;7.21;65.38
71795;BME280;59641;45.188;5.712;2024-01-07T06:59:11;98470.06;;;7.16;65.36
71795;BME280;59641;45.188;5.712;2024-01-07T07:01:37;98471.97;;;7.09;65.59
71795;BME280;59641;45.188;5.712;2024-01-07T07:04:03;98474.50;;;7.04;65.43
71795;BME280;59641;45.188;5.712;2024-01-07T07:06:29;98468.56;;;7.02;65.67
71795;BME280;59641;45.188;5.712;2024-01-07T07:08:54;98476.78;;;7.00;65.70
71795;BME280;59641;45.188;5.712;2024-01-07T07:11:19;98479.47;;;7.00;65.70
71795;BME280;59641;45.188;5.712;2024-01-07T07:13:45;98478.84;;;6.98;66.19
71795;BME280;59641;45.188;5.712;2024-01-07T07:16:10;98481.31;;;7.00;65.83
71795;BME280;59641;45.188;5.712;2024-01-07T07:18:35;98488.47;;;6.99;65.91
71795;BME280;59641;45.188;5.712;2024-01-07T07:21:00;98477.22;;;6.97;65.86
71795;BME280;59641;45.188;5.712;2024-01-07T07:23:26;98484.00;;;7.00;66.12
71795;BME280;59641;45.188;5.712;2024-01-07T07:25:51;98491.16;;;6.99;66.04
71795;BME280;59641;45.188;5.712;2024-01-07T07:28:17;98493.81;;;6.99;66.01
71795;BME280;59641;45.188;5.712;2024-01-07T07:30:42;98489.09;;;7.01;66.04
71795;BME280;59641;45.188;5.712;2024-01-07T07:33:08;98487.03;;;7.03;66.16
71795;BME280;59641;45.188;5.712;2024-01-07T07:35:33;98493.97;;;7.04;66.07
71795;BME280;59641;45.188;5.712;2024-01-07T07:37:58;98493.56;;;7.08;66.17
71795;BME280;59641;45.188;5.712;2024-01-07T07:40:24;98490.91;;;7.08;66.03
71795;BME280;59641;45.188;5.712;2024-01-07T07:42:49;98494.59;;;7.07;66.05
71795;BME280;59641;45.188;5.712;2024-01-07T07:45:14;98498.09;;;7.07;65.86
71795;BME280;59641;45.188;5.712;2024-01-07T07:47:40;98496.66;;;7.04;65.81
71795;BME280;59641;45.188;5.712;2024-01-07T07:50:10;98510.22;;;7.03;65.98
71795;BME280;59641;45.188;5.712;2024-01-07T07:52:35;98500.56;;;7.02;65.99
71795;BME280;59641;45.188;5.712;2024-01-07T07:55:01;98505.31;;;7.00;66.21
71795;BME280;59641;45.188;5.712;2024-01-07T07:57:26;98516.00;;;7.00;66.25
71795;BME280;59641;45.188;5.712;2024-01-07T07:59:51;98515.41;;;6.98;66.03
71795;BME280;59641;45.188;5.712;2024-01-07T08:02:18;98511.88;;;6.97;66.16
71795;BME280;59641;45.188;5.712;2024-01-07T08:04:43;98525.47;;;6.96;66.33
71795;BME280;59641;45.188;5.712;2024-01-07T08:07:09;98527.53;;;6.94;66.16
71795;BME280;59641;45.188;5.712;2024-01-07T08:09:35;98526.72;;;6.93;66.28
71795;BME280;59641;45.188;5.712;2024-01-07T08:12:04;98528.94;;;6.96;66.25
71795;BME280;59641;45.188;5.712;2024-01-07T08:14:31;98523.59;;;6.96;66.32
71795;BME280;59641;45.188;5.712;2024-01-07T08:16:56;98536.50;;;6.99;66.26
71795;BME280;59641;45.188;5.712;2024-01-07T08:19:21;98527.31;;;6.95;66.36
71795;BME280;59641;45.188;5.712;2024-01-07T08:21:47;98522.56;;;6.97;66.41
71795;BME280;59641;45.188;5.712;2024-01-07T08:24:13;98528.72;;;6.98;66.63
71795;BME280;59641;45.188;5.712;2024-01-07T08:26:39;98534.88;;;6.98;66.30
71795;BME280;59641;45.188;5.712;2024-01-07T08:29:04;98534.28;;;6.96;66.35
71795;BME280;59641;45.188;5.712;2024-01-07T08:31:30;98523.41;;;6.98;66.51
71795;BME280;59641;45.188;5.712;2024-01-07T08:33:56;98526.28;;;6.96;66.44
71795;BME280;59641;45.188;5.712;2024-01-07T08:36:21;98542.47;;;6.95;66.37
71795;BME280;59641;45.188;5.712;2024-01-07T08:38:46;98530.19;;;6.94;66.41
71795;BME280;59641;45.188;5.712;2024-01-07T08:41:15;98539.22;;;6.93;66.31
71795;BME280;59641;45.188;5.712;2024-01-07T08:43:40;98536.16;;;6.89;66.41
71795;BME280;59641;45.188;5.712;2024-01-07T08:46:06;98538.84;;;6.89;66.42
71795;BME280;59641;45.188;5.712;2024-01-07T08:48:31;98541.28;;;6.91;66.59
71795;BME280;59641;45.188;5.712;2024-01-07T08:50:56;98545.38;;;6.93;66.54
71795;BME280;59641;45.188;5.712;2024-01-07T08:53:22;98552.56;;;6.93;66.56
71795;BME280;59641;45.188;5.712;2024-01-07T08:55:48;98536.56;;;6.93;66.46
71795;BME280;59641;45.188;5.712;2024-01-07T08:58:13;98548.25;;;6.92;66.40
71795;BME280;59641;45.188;5.712;2024-01-07T09:00:39;98546.41;;;6.92;66.22
71795;BME280;59641;45.188;5.712;2024-01-07T09:03:05;98542.31;;;6.90;66.54
71795;BME280;59641;45.188;5.712;2024-01-07T09:05:31;98553.22;;;6.88;66.58
71795;BME280;59641;45.188;5.712;2024-01-07T09:07:57;98547.69;;;6.83;66.66
71795;BME280;59641;45.188;5.712;2024-01-07T09:10:22;98540.34;;;6.78;66.95
71795;BME280;59641;45.188;5.712;2024-01-07T09:12:50;98541.97;;;6.79;66.77
71795;BME280;59641;45.188;5.712;2024-01-07T09:15:18;98548.94;;;6.80;66.84
71795;BME280;59641;45.188;5.712;2024-01-07T09:17:43;98541.00;;;6.74;66.95
71795;BME280;59641;45.188;5.712;2024-01-07T09:20:10;98561.91;;;6.77;66.68
71795;BME280;59641;45.188;5.712;2024-01-07T09:22:35;98547.50;;;6.78;66.95
71795;BME280;59641;45.188;5.712;2024-01-07T09:25:02;98541.78;;;6.81;66.81
71795;BME280;59641;45.188;5.712;2024-01-07T09:27:29;98544.59;;;6.86;66.85
71795;BME280;59641;45.188;5.712;2024-01-07T09:29:54;98543.13;;;6.90;66.85
71795;BME280;59641;45.188;5.712;2024-01-07T09:32:19;98552.78;;;6.91;66.86
71795;BME280;59641;45.188;5.712;2024-01-07T09:34:45;98564.69;;;6.89;66.77
71795;BME280;59641;45.188;5.712;2024-01-07T09:37:10;98558.56;;;6.88;66.83
71795;BME280;59641;45.188;5.712;2024-01-07T09:39:39;98558.75;;;6.87;66.86
71795;BME280;59641;45.188;5.712;2024-01-07T09:42:12;98559.81;;;6.86;66.86
71795;BME280;59641;45.188;5.712;2024-01-07T09:44:37;98552.00;;;6.84;66.89
71795;BME280;59641;45.188;5.712;2024-01-07T09:47:04;98550.97;;;6.85;67.02
71795;BME280;59641;45.188;5.712;2024-01-07T09:49:30;98559.81;;;6.86;66.94
71795;BME280;59641;45.188;5.712;2024-01-07T09:51:59;98560.59;;;6.86;66.94
71795;BME280;59641;45.188;5.712;2024-01-07T09:54:27;98571.03;;;6.88;66.90
71795;BME280;59641;45.188;5.712;2024-01-07T09:56:56;98568.97;;;6.90;66.93
71795;BME280;59641;45.188;5.712;2024-01-07T09:59:30;98566.91;;;6.92;67.00
71795;BME280;59641;45.188;5.712;2024-01-07T10:01:56;98560.78;;;6.91;66.86
71795;BME280;59641;45.188;5.712;2024-01-07T10:04:23;98568.78;;;6.91;66.96
71795;BME280;59641;45.188;5.712;2024-01-07T10:06:50;98565.06;;;6.92;66.83
71795;BME280;59641;45.188;5.712;2024-01-07T10:09:17;98565.91;;;6.93;67.05
71795;BME280;59641;45.188;5.712;2024-01-07T10:11:43;98555.25;;;6.93;66.86
71795;BME280;59641;45.188;5.712;2024-01-07T10:14:08;98562.19;;;6.94;66.97
71795;BME280;59641;45.188;5.712;2024-01-07T10:16:34;98561.16;;;6.95;66.88
71795;BME280;59641;45.188;5.712;2024-01-07T10:18:59;98554.19;;;6.94;66.97
71795;BME280;59641;45.188;5.712;2024-01-07T10:21:25;98562.19;;;6.94;67.03
71795;BME280;59641;45.188;5.712;2024-01-07T10:23:50;98566.47;;;6.95;67.10
71795;BME280;59641;45.188;5.712;2024-01-07T10:26:16;98558.72;;;6.93;66.94
71795;BME280;59641;45.188;5.712;2024-01-07T10:28:41;98566.72;;;6.93;67.04
71795;BME280;59641;45.188;5.712;2024-01-07T10:31:09;98549.66;;;6.94;66.93
71795;BME280;59641;45.188;5.712;2024-01-07T10:33:34;98548.03;;;6.93;67.00
71795;BME280;59641;45.188;5.712;2024-01-07T10:36:06;98552.13;;;6.96;67.10
71795;BME280;59641;45.188;5.712;2024-01-07T10:38:32;98544.94;;;6.96;67.14
71795;BME280;59641;45.188;5.712;2024-01-07T10:41:01;98551.69;;;6.99;67.19
71795;BME280;59641;45.188;5.712;2024-01-07T10:43:29;98557.84;;;6.99;67.16
71795;BME280;59641;45.188;5.712;2024-01-07T10:45:55;98555.16;;;6.99;67.29
71795;BME280;59641;45.188;5.712;2024-01-07T10:48:21;98562.97;;;7.01;67.18
71795;BME280;59641;45.188;5.712;2024-01-07T10:50:50;98551.69;;;6.99;67.19
71795;BME280;59641;45.188;5.712;2024-01-07T10:53:21;98553.97;;;6.95;67.14
71795;BME280;59641;45.188;5.712;2024-01-07T10:55:56;98551.53;;;6.94;67.19
71795;BME280;59641;45.188;5.712;2024-01-07T10:58:25;98550.28;;;6.96;67.26
71795;BME280;59641;45.188;5.712;2024-01-07T11:00:51;98549.22;;;6.97;67.13
71795;BME280;59641;45.188;5.712;2024-01-07T11:03:33;98538.78;;;6.96;67.15
71795;BME280;59641;45.188;5.712;2024-01-07T11:06:34;98543.53;;;6.94;67.20
71795;BME280;59641;45.188;5.712;2024-01-07T11:09:14;98540.25;;;6.92;67.32
71795;BME280;59641;45.188;5.712;2024-01-07T11:11:44;98542.91;;;6.92;67.36
71795;BME280;59641;45.188;5.712;2024-01-07T11:14:39;98537.59;;;6.92;67.27
71795;BME280;59641;45.188;5.712;2024-01-07T11:17:08;98537.59;;;6.92;67.37
71795;BME280;59641;45.188;5.712;2024-01-07T11:19:35;98533.06;;;6.92;67.36
71795;BME280;59641;45.188;5.712;2024-01-07T11:22:23;98524.03;;;6.93;67.30
71795;BME280;59641;45.188;5.712;2024-01-07T11:24:53;98529.59;;;6.92;67.27
71795;BME280;59641;45.188;5.712;2024-01-07T11:27:19;98539.00;;;6.94;67.43
71795;BME280;59641;45.188;5.712;2024-01-07T11:29:55;98539.00;;;6.94;67.30
71795;BME280;59641;45.188;5.712;2024-01-07T11:32:28;98533.06;;;6.92;67.28
71795;BME280;59641;45.188;5.712;2024-01-07T11:34:54;98529.13;;;6.95;67.32
71795;BME280;59641;45.188;5.712;2024-01-07T11:37:22;98537.38;;;6.93;67.45
71795;BME280;59641;45.188;5.712;2024-01-07T11:39:50;98531.59;;;6.96;67.57
71795;BME280;59641;45.188;5.712;2024-01-07T11:42:16;98535.47;;;7.00;67.49
71795;BME280;59641;45.188;5.712;2024-01-07T11:44:48;98543.25;;;7.02;67.31
71795;BME280;59641;45.188;5.712;2024-01-07T11:47:16;98545.34;;;7.00;67.24
71795;BME280;59641;45.188;5.712;2024-01-07T11:49:41;98538.34;;;6.99;67.29
71795;BME280;59641;45.188;5.712;2024-01-07T11:52:06;98528.50;;;6.99;67.13
71795;BME280;59641;45.188;5.712;2024-01-07T11:54:33;98534.88;;;6.98;67.15
71795;BME280;59641;45.188;5.712;2024-01-07T11:56:59;98530.56;;;6.97;67.24
71795;BME280;59641;45.188;5.712;2024-01-07T11:59:24;98534.88;;;6.98;67.47
71795;BME280;59641;45.188;5.712;2024-01-07T12:01:50;98532.00;;;7.00;67.53
71795;BME280;59641;45.188;5.712;2024-01-07T12:04:15;98538.50;;;7.04;67.39
71795;BME280;59641;45.188;5.712;2024-01-07T12:06:41;98542.22;;;7.03;67.27
71795;BME280;59641;45.188;5.712;2024-01-07T12:09:06;98530.75;;;7.02;67.32
71795;BME280;59641;45.188;5.712;2024-01-07T12:11:32;98545.34;;;7.00;67.21
71795;BME280;59641;45.188;5.712;2024-01-07T12:13:57;98546.78;;;6.96;67.28
71795;BME280;59641;45.188;5.712;2024-01-07T12:16:25;98545.16;;;6.95;67.22
71795;BME280;59641;45.188;5.712;2024-01-07T12:18:50;98542.72;;;6.93;67.32
71795;BME280;59641;45.188;5.712;2024-01-07T12:21:21;98534.72;;;6.93;67.41
71795;BME280;59641;45.188;5.712;2024-01-07T12:23:50;98533.91;;;6.93;67.31
71795;BME280;59641;45.188;5.712;2024-01-07T12:26:16;98535.53;;;6.94;67.42
71795;BME280;59641;45.188;5.712;2024-01-07T12:28:41;98542.91;;;6.92;67.30
71795;BME280;59641;45.188;5.712;2024-01-07T12:31:07;98539.66;;;6.90;66.97
71795;BME280;59641;45.188;5.712;2024-01-07T12:33:33;98537.22;;;6.88;67.32
71795;BME280;59641;45.188;5.712;2024-01-07T12:35:59;98539.88;;;6.88;67.57
71795;BME280;59641;45.188;5.712;2024-01-07T12:38:25;98540.69;;;6.89;67.46
71795;BME280;59641;45.188;5.712;2024-01-07T12:40:52;98541.28;;;6.91;67.63
71795;BME280;59641;45.188;5.712;2024-01-07T12:43:17;98530.03;;;6.89;67.53
71795;BME280;59641;45.188;5.712;2024-01-07T12:45:43;98529.78;;;6.90;67.49
71795;BME280;59641;45.188;5.712;2024-01-07T12:48:09;98523.66;;;6.90;67.59
71795;BME280;59641;45.188;5.712;2024-01-07T12:50:34;98536.97;;;6.90;67.65
71795;BME280;59641;45.188;5.712;2024-01-07T12:53:00;98540.25;;;6.92;67.50
71795;BME280;59641;45.188;5.712;2024-01-07T12:55:26;98534.47;;;6.95;67.71
71795;BME280;59641;45.188;5.712;2024-01-07T12:57:51;98537.75;;;6.97;67.58
71795;BME280;59641;45.188;5.712;2024-01-07T13:00:17;98539.41;;;6.98;67.57
71795;BME280;59641;45.188;5.712;2024-01-07T13:02:43;98534.06;;;6.98;67.49
71795;BME280;59641;45.188;5.712;2024-01-07T13:05:08;98540.41;;;6.97;67.33